createdAt,value
2022-08-19T00:00:25.337Z,5.03
2022-08-19T00:03:11.329Z,5.00
2022-08-19T00:05:57.524Z,5.43
2022-08-19T00:08:44.055Z,6.30
2022-08-19T00:11:29.974Z,5.68
2022-08-19T00:14:18.214Z,6.07
2022-08-19T00:17:04.945Z,6.53
2022-08-19T00:19:51.153Z,7.35
2022-08-19T00:22:36.700Z,7.03
2022-08-19T00:25:30.070Z,7.82
2022-08-19T00:28:16.836Z,7.50
2022-08-19T00:31:06.293Z,7.60
2022-08-19T00:33:52.187Z,8.23
2022-08-19T00:36:38.925Z,9.27
2022-08-19T00:39:25.021Z,9.52
2022-08-19T00:42:10.564Z,11.35
2022-08-19T00:44:56.257Z,10.93
2022-08-19T00:47:42.175Z,10.88
2022-08-19T00:50:29.062Z,10.82
2022-08-19T00:53:18.572Z,11.60
2022-08-19T00:56:07.226Z,10.45
2022-08-19T00:58:54.222Z,11.15
2022-08-19T01:01:42.950Z,12.32
2022-08-19T01:04:28.780Z,11.43
2022-08-19T01:07:15.017Z,11.98
2022-08-19T01:10:04.385Z,13.00
2022-08-19T01:12:51.205Z,12.32
2022-08-19T01:15:44.485Z,13.63
2022-08-19T01:21:29.200Z,13.35
2022-08-19T01:24:16.056Z,15.25
2022-08-19T01:27:05.481Z,16.80
2022-08-19T01:29:56.980Z,14.70
2022-08-19T01:32:44.374Z,17.25
2022-08-19T01:35:31.500Z,17.05
2022-08-19T01:38:25.570Z,17.85
2022-08-19T01:41:14.543Z,18.70
2022-08-19T01:44:09.761Z,18.33
2022-08-19T01:49:50.632Z,18.23
2022-08-19T01:52:38.810Z,18.25
2022-08-19T01:55:25.224Z,18.40
2022-08-19T01:58:21.486Z,19.75
2022-08-19T02:01:08.073Z,21.40
2022-08-19T02:03:56.883Z,21.13
2022-08-19T02:06:44.003Z,22.38
2022-08-19T02:09:29.843Z,21.08
2022-08-19T02:12:17.223Z,21.63
2022-08-19T02:15:04.437Z,20.52
2022-08-19T02:17:50.492Z,20.15
2022-08-19T02:20:38.538Z,22.23
2022-08-19T02:23:24.557Z,22.55
2022-08-19T02:26:10.502Z,24.20
2022-08-19T02:28:57.019Z,23.88
2022-08-19T02:31:43.154Z,23.63
2022-08-19T02:34:29.216Z,19.52
2022-08-19T02:37:35.006Z,20.35
2022-08-19T02:40:22.084Z,21.27
2022-08-19T02:43:09.761Z,19.50
2022-08-19T02:45:55.969Z,18.30
2022-08-19T02:48:42.390Z,16.20
2022-08-19T02:51:34.755Z,10.27
2022-08-19T02:54:20.269Z,3.00
2022-08-19T02:57:07.154Z,0.90
2022-08-19T02:59:53.729Z,0.80
2022-08-19T03:02:40.227Z,0.82
2022-08-19T03:05:48.117Z,1.23
2022-08-19T03:08:31.699Z,1.00
2022-08-19T03:11:22.145Z,0.70
2022-08-19T03:14:09.898Z,0.90
2022-08-19T03:16:55.806Z,0.73
2022-08-19T03:19:41.981Z,0.80
2022-08-19T03:22:28.283Z,0.90
2022-08-19T03:25:14.730Z,0.90
2022-08-19T03:28:00.675Z,1.10
2022-08-19T03:30:57.742Z,0.70
2022-08-19T03:33:43.671Z,1.00
2022-08-19T03:36:32.440Z,1.02
2022-08-19T03:39:19.033Z,1.60
2022-08-19T03:42:38.643Z,1.52
2022-08-19T03:45:12.570Z,1.60
2022-08-19T03:47:58.416Z,1.42
2022-08-19T03:50:44.767Z,2.97
2022-08-19T03:53:32.134Z,1.63
2022-08-19T03:56:18.174Z,3.10
2022-08-19T03:59:04.955Z,2.75
2022-08-19T04:01:50.644Z,2.55
2022-08-19T04:04:37.608Z,2.95
2022-08-19T04:07:23.753Z,3.17
2022-08-19T04:10:10.626Z,3.17
2022-08-19T04:12:56.388Z,2.83
2022-08-19T04:15:44.611Z,3.15
2022-08-19T04:18:36.477Z,2.67
2022-08-19T04:21:26.613Z,2.42
2022-08-19T04:24:12.897Z,1.95
2022-08-19T04:27:03.780Z,2.03
2022-08-19T04:29:49.853Z,1.50
2022-08-19T04:32:36.339Z,1.63
2022-08-19T04:35:24.834Z,1.58
2022-08-19T04:38:13.166Z,1.60
2022-08-19T04:41:17.359Z,1.63
2022-08-19T04:44:04.528Z,1.33
2022-08-19T04:46:52.354Z,1.88
2022-08-19T04:49:38.378Z,1.45
2022-08-19T04:52:24.407Z,0.85
2022-08-19T04:55:13.635Z,1.27
2022-08-19T04:57:59.744Z,1.05
2022-08-19T05:00:45.936Z,1.35
2022-08-19T05:03:34.498Z,0.90
2022-08-19T05:06:22.401Z,0.82
2022-08-19T05:09:07.995Z,0.93
2022-08-19T05:11:54.602Z,1.00
2022-08-19T05:14:40.700Z,1.02
2022-08-19T05:17:30.337Z,1.02
2022-08-19T05:20:36.853Z,1.05
2022-08-19T05:23:23.333Z,0.82
2022-08-19T05:26:11.492Z,0.90
2022-08-19T05:28:57.949Z,0.90
2022-08-19T05:31:43.951Z,0.93
2022-08-19T05:34:29.935Z,0.90
2022-08-19T05:37:15.360Z,0.73
2022-08-19T05:40:02.408Z,0.95
2022-08-19T05:42:54.784Z,0.88
2022-08-19T05:45:43.248Z,1.00
2022-08-19T05:48:29.926Z,0.90
2022-08-19T05:51:17.809Z,0.70
2022-08-19T05:54:05.286Z,0.90
2022-08-19T05:56:52.833Z,0.82
2022-08-19T05:59:39.253Z,0.60
2022-08-19T06:02:25.879Z,0.70
2022-08-19T06:05:12.513Z,0.80
2022-08-19T06:07:59.722Z,1.10
2022-08-19T06:10:45.529Z,0.90
2022-08-19T06:13:35.189Z,1.10
2022-08-19T06:16:23.426Z,0.85
2022-08-19T06:19:13.096Z,0.95
2022-08-19T06:22:00.648Z,0.85
2022-08-19T06:24:46.936Z,0.82
2022-08-19T06:27:34.173Z,0.90
2022-08-19T06:30:20.328Z,1.38
2022-08-19T06:33:06.654Z,0.90
2022-08-19T06:35:52.733Z,0.88
2022-08-19T06:38:39.227Z,0.80
2022-08-19T06:41:27.024Z,0.70
2022-08-19T06:44:13.540Z,1.20
2022-08-19T06:46:59.679Z,0.70
2022-08-19T06:49:46.336Z,0.80
2022-08-19T06:52:38.385Z,1.35
2022-08-19T06:55:24.771Z,1.25
2022-08-19T06:58:10.652Z,1.10
2022-08-19T07:00:58.608Z,1.00
2022-08-19T07:03:45.121Z,0.75
2022-08-19T07:06:44.404Z,1.05
2022-08-19T07:09:31.353Z,1.15
2022-08-19T07:12:17.625Z,0.90
2022-08-19T07:15:05.793Z,0.80
2022-08-19T07:17:53.460Z,0.90
2022-08-19T07:20:41.947Z,0.60
2022-08-19T07:23:28.037Z,0.90
2022-08-19T07:26:21.484Z,0.60
2022-08-19T07:29:14.530Z,0.90
2022-08-19T07:32:02.532Z,1.10
2022-08-19T07:34:48.848Z,0.60
2022-08-19T07:37:37.950Z,0.60
2022-08-19T07:40:24.377Z,0.38
2022-08-19T07:43:14.033Z,0.75
2022-08-19T07:46:02.851Z,0.57
2022-08-19T07:48:52.317Z,0.60
2022-08-19T07:51:38.240Z,0.50
2022-08-19T07:54:25.904Z,0.93
2022-08-19T07:57:12.314Z,0.80
2022-08-19T07:59:57.940Z,0.50
2022-08-19T08:02:44.928Z,0.45
2022-08-19T08:05:50.580Z,0.50
2022-08-19T08:08:54.660Z,0.77
2022-08-19T08:11:42.783Z,0.50
2022-08-19T08:14:36.078Z,0.73
2022-08-19T08:17:48.448Z,0.60
2022-08-19T08:20:31.231Z,0.45
2022-08-19T08:23:23.308Z,0.50
2022-08-19T08:26:09.296Z,0.45
2022-08-19T08:28:57.219Z,0.60
2022-08-19T08:31:44.996Z,1.00
2022-08-19T08:34:30.898Z,0.98
2022-08-19T08:37:16.649Z,0.80
2022-08-19T08:40:49.574Z,0.40
2022-08-19T08:43:39.034Z,0.95
2022-08-19T08:47:02.867Z,0.50
2022-08-19T08:50:02.236Z,0.50
2022-08-19T08:52:52.157Z,0.40
2022-08-19T08:55:38.344Z,0.55
2022-08-19T08:58:42.961Z,0.40
2022-08-19T09:01:30.151Z,0.40
2022-08-19T09:04:17.229Z,0.70
2022-08-19T09:07:45.714Z,0.70
2022-08-19T09:10:45.113Z,0.70
2022-08-19T09:13:56.225Z,0.70
2022-08-19T09:16:41.747Z,0.80
2022-08-19T09:19:27.540Z,0.60
2022-08-19T09:22:14.989Z,0.50
2022-08-19T09:25:15.920Z,0.55
2022-08-19T09:28:05.696Z,0.63
2022-08-19T09:31:01.422Z,0.40
2022-08-19T09:33:48.203Z,0.43
2022-08-19T09:36:39.772Z,0.63
2022-08-19T09:39:25.472Z,0.45
2022-08-19T09:42:30.014Z,0.47
2022-08-19T09:45:22.914Z,0.50
2022-08-19T09:48:09.407Z,0.80
2022-08-19T09:50:55.663Z,0.55
2022-08-19T09:53:41.328Z,0.80
2022-08-19T09:56:27.196Z,0.60
2022-08-19T09:59:13.164Z,0.80
2022-08-19T10:02:04.016Z,0.70
2022-08-19T10:05:15.461Z,0.82
2022-08-19T10:08:13.154Z,0.85
2022-08-19T10:11:00.136Z,1.10
2022-08-19T10:14:06.784Z,0.90
2022-08-19T10:16:52.550Z,1.00
2022-08-19T10:19:39.219Z,1.20
2022-08-19T10:22:25.968Z,1.00
2022-08-19T10:25:17.577Z,1.40
2022-08-19T10:28:03.184Z,1.38
2022-08-19T10:30:49.479Z,1.20
2022-08-19T10:33:53.199Z,1.20
2022-08-19T10:36:39.805Z,0.98
2022-08-19T10:39:47.777Z,0.90
2022-08-19T10:42:37.311Z,0.93
2022-08-19T10:45:26.559Z,1.20
2022-08-19T10:48:15.646Z,0.90
2022-08-19T10:51:25.389Z,0.80
2022-08-19T10:54:12.619Z,0.65
2022-08-19T10:56:58.978Z,0.70
2022-08-19T10:59:45.317Z,0.90
2022-08-19T11:02:33.736Z,0.63
2022-08-19T11:05:20.480Z,0.98
2022-08-19T11:08:22.394Z,0.70
2022-08-19T11:11:10.064Z,0.93
2022-08-19T11:13:56.066Z,0.50
2022-08-19T11:16:43.367Z,0.80
2022-08-19T11:19:28.972Z,0.77
2022-08-19T11:22:14.853Z,0.80
2022-08-19T11:25:05.992Z,0.52
2022-08-19T11:27:53.264Z,0.70
2022-08-19T11:30:42.956Z,0.60
2022-08-19T11:33:28.720Z,0.55
2022-08-19T11:36:15.137Z,0.68
2022-08-19T11:39:01.945Z,0.45
2022-08-19T11:41:47.780Z,0.60
2022-08-19T11:44:34.255Z,0.50
2022-08-19T11:47:23.097Z,0.60
2022-08-19T11:50:10.805Z,0.57
2022-08-19T11:52:57.788Z,0.60
2022-08-19T11:55:45.826Z,0.40
2022-08-19T11:58:31.582Z,0.30
2022-08-19T12:01:19.432Z,0.40
2022-08-19T12:04:07.954Z,0.30
2022-08-19T12:06:54.431Z,0.28
2022-08-19T12:09:42.191Z,0.38
2022-08-19T12:12:28.983Z,0.70
2022-08-19T12:15:15.337Z,0.40
2022-08-19T12:18:01.241Z,0.40
2022-08-19T12:20:51.946Z,0.55
2022-08-19T12:23:38.412Z,0.50
2022-08-19T12:26:26.229Z,0.50
2022-08-19T12:29:11.736Z,0.30
2022-08-19T12:32:04.099Z,0.40
2022-08-19T12:34:50.029Z,0.57
2022-08-19T12:37:36.306Z,0.50
2022-08-19T12:40:22.049Z,0.60
2022-08-19T12:43:09.325Z,0.45
2022-08-19T12:45:55.588Z,0.45
2022-08-19T12:48:43.327Z,0.47
2022-08-19T12:51:32.410Z,0.40
2022-08-19T12:54:21.130Z,0.70
2022-08-19T12:57:08.830Z,0.52
2022-08-19T12:59:54.859Z,0.60
2022-08-19T13:02:42.869Z,0.40
2022-08-19T13:05:31.382Z,0.57
2022-08-19T13:08:18.017Z,0.60
2022-08-19T13:11:16.473Z,0.50
2022-08-19T13:14:04.770Z,0.90
2022-08-19T13:16:50.612Z,0.60
2022-08-19T13:19:40.975Z,0.80
2022-08-19T13:22:27.015Z,0.60
2022-08-19T13:25:17.349Z,0.60
2022-08-19T13:28:03.739Z,0.77
2022-08-19T13:31:07.890Z,0.50
2022-08-19T13:33:53.505Z,0.50
2022-08-19T13:36:39.699Z,0.50
2022-08-19T13:39:25.350Z,0.30
2022-08-19T13:42:13.910Z,0.30
2022-08-19T13:44:59.758Z,0.50
2022-08-19T13:47:53.673Z,0.50
2022-08-19T13:50:44.839Z,0.60
2022-08-19T13:53:31.210Z,0.60
2022-08-19T13:56:24.147Z,0.40
2022-08-19T13:59:12.765Z,0.40
2022-08-19T14:02:01.866Z,0.57
2022-08-19T14:04:47.333Z,0.30
2022-08-19T14:07:33.175Z,0.40
2022-08-19T14:10:20.237Z,0.40
2022-08-19T14:13:06.123Z,0.50
2022-08-19T14:15:52.960Z,0.38
2022-08-19T14:18:40.630Z,0.40
2022-08-19T14:21:26.463Z,0.50
2022-08-19T14:24:12.150Z,0.32
2022-08-19T14:26:59.924Z,0.50
2022-08-19T14:29:46.456Z,0.30
2022-08-19T14:32:32.080Z,0.47
2022-08-19T14:35:17.940Z,0.50
2022-08-19T14:38:06.614Z,0.45
2022-08-19T14:40:53.026Z,0.55
2022-08-19T14:43:40.713Z,0.63
2022-08-19T14:46:29.572Z,0.50
2022-08-19T14:49:15.286Z,0.50
2022-08-19T14:52:01.374Z,0.52
2022-08-19T14:54:47.269Z,0.52
2022-08-19T14:57:33.160Z,0.60
2022-08-19T15:00:18.961Z,0.40
2022-08-19T15:03:05.109Z,0.63
2022-08-19T15:05:50.680Z,0.40
2022-08-19T15:08:39.924Z,0.50
2022-08-19T15:11:28.772Z,0.40
2022-08-19T15:14:16.180Z,0.50
2022-08-19T15:17:03.884Z,0.60
2022-08-19T15:19:49.545Z,0.50
2022-08-19T15:22:36.424Z,0.60
2022-08-19T15:25:22.595Z,0.60
2022-08-19T15:28:08.580Z,0.70
2022-08-19T15:30:54.312Z,0.50
2022-08-19T15:33:44.382Z,0.50
2022-08-19T15:36:30.529Z,0.60
2022-08-19T15:39:16.589Z,0.40
2022-08-19T15:42:03.032Z,0.52
2022-08-19T15:44:49.633Z,0.82
2022-08-19T15:47:36.851Z,0.50
2022-08-19T15:50:22.636Z,0.70
2022-08-19T15:53:10.688Z,0.70
2022-08-19T15:55:56.643Z,0.60
2022-08-19T15:59:01.871Z,0.65
2022-08-19T16:02:06.256Z,0.45
2022-08-19T16:05:15.024Z,0.80
2022-08-19T16:08:00.778Z,0.55
2022-08-19T16:10:47.213Z,0.80
2022-08-19T16:13:33.599Z,0.82
2022-08-19T16:16:20.354Z,0.70
2022-08-19T16:19:10.674Z,1.10
2022-08-19T16:21:58.354Z,0.77
2022-08-19T16:24:44.506Z,0.90
2022-08-19T16:27:30.640Z,0.80
2022-08-19T16:30:16.342Z,0.60
2022-08-19T16:33:02.867Z,0.90
2022-08-19T16:35:52.037Z,0.85
2022-08-19T16:38:46.659Z,0.80
2022-08-19T16:41:32.548Z,0.70
2022-08-19T16:44:19.353Z,0.85
2022-08-19T16:47:05.257Z,0.77
2022-08-19T16:49:52.907Z,0.80
2022-08-19T16:52:41.045Z,0.85
2022-08-19T16:55:28.352Z,0.98
2022-08-19T16:58:14.361Z,0.85
2022-08-19T17:01:04.210Z,0.90
2022-08-19T17:03:52.046Z,0.70
2022-08-19T17:06:39.615Z,1.08
2022-08-19T17:09:26.079Z,0.93
2022-08-19T17:12:12.714Z,0.98
2022-08-19T17:14:59.022Z,0.93
2022-08-19T17:17:44.890Z,1.00
2022-08-19T17:20:31.875Z,0.80
2022-08-19T17:23:18.937Z,0.98
2022-08-19T17:26:05.450Z,0.95
2022-08-19T17:28:53.392Z,0.95
2022-08-19T17:31:39.110Z,1.23
2022-08-19T17:34:24.738Z,1.00
2022-08-19T17:37:10.437Z,0.90
2022-08-19T17:39:56.455Z,1.00
2022-08-19T17:42:42.373Z,1.00
2022-08-19T17:45:28.402Z,1.10
2022-08-19T17:48:14.455Z,1.17
2022-08-19T17:51:00.525Z,1.10
2022-08-19T17:53:46.383Z,1.08
2022-08-19T17:56:32.049Z,1.05
2022-08-19T17:59:18.140Z,0.95
2022-08-19T18:02:05.654Z,1.00
2022-08-19T18:04:52.237Z,1.08
2022-08-19T18:07:38.672Z,1.17
2022-08-19T18:10:35.280Z,1.23
2022-08-19T18:13:21.445Z,1.25
2022-08-19T18:16:10.901Z,1.15
2022-08-19T18:18:56.400Z,1.40
2022-08-19T18:21:42.360Z,1.10
2022-08-19T18:24:28.082Z,1.30
2022-08-19T18:27:14.877Z,1.30
2022-08-19T18:30:01.332Z,1.33
2022-08-19T18:32:49.625Z,1.65
2022-08-19T18:35:38.586Z,1.40
2022-08-19T18:38:43.470Z,1.65
2022-08-19T18:41:47.277Z,1.77
2022-08-19T18:44:57.903Z,1.85
2022-08-19T18:48:03.976Z,2.00
2022-08-19T18:50:51.173Z,1.60
2022-08-19T18:53:39.517Z,1.83
2022-08-19T18:56:29.172Z,1.60
2022-08-19T18:59:14.998Z,1.60
2022-08-19T19:02:02.302Z,2.15
2022-08-19T19:04:47.949Z,1.70
2022-08-19T19:07:35.025Z,1.60
2022-08-19T19:10:20.921Z,1.90
2022-08-19T19:13:06.309Z,1.85
2022-08-19T19:15:52.380Z,1.80
2022-08-19T19:18:38.672Z,1.52
2022-08-19T19:21:25.682Z,1.80
2022-08-19T19:24:13.917Z,1.70
2022-08-19T19:27:06.489Z,1.70
2022-08-19T19:29:53.046Z,1.83
2022-08-19T19:32:39.448Z,1.70
2022-08-19T19:35:25.183Z,1.80
2022-08-19T19:38:11.327Z,1.48
2022-08-19T19:40:57.031Z,2.10
2022-08-19T19:43:44.141Z,1.80
2022-08-19T19:46:32.150Z,1.60
2022-08-19T19:49:17.946Z,1.80
2022-08-19T19:52:04.452Z,1.58
2022-08-19T19:54:50.097Z,2.05
2022-08-19T19:57:35.944Z,1.83
2022-08-19T20:00:22.417Z,1.45
2022-08-19T20:03:08.221Z,1.83
2022-08-19T20:05:54.811Z,1.83
2022-08-19T20:08:59.454Z,2.05
2022-08-19T20:11:45.939Z,1.75
2022-08-19T20:14:35.745Z,1.80
2022-08-19T20:17:21.872Z,1.70
2022-08-19T20:20:09.866Z,1.80
2022-08-19T20:22:56.027Z,1.50
2022-08-19T20:25:42.026Z,2.10
2022-08-19T20:28:28.303Z,2.10
2022-08-19T20:31:14.297Z,2.10
2022-08-19T20:34:00.201Z,2.00
2022-08-19T20:36:46.680Z,1.90
2022-08-19T20:39:32.539Z,1.73
2022-08-19T20:42:18.501Z,2.13
2022-08-19T20:45:08.681Z,1.80
2022-08-19T20:48:10.381Z,2.13
2022-08-19T20:50:57.338Z,2.22
2022-08-19T20:53:43.224Z,1.80
2022-08-19T20:56:28.756Z,2.00
2022-08-19T20:59:19.924Z,1.73
2022-08-19T21:02:05.708Z,1.75
2022-08-19T21:04:52.577Z,2.30
2022-08-19T21:07:44.573Z,1.95
2022-08-19T21:10:30.717Z,1.98
2022-08-19T21:13:16.938Z,2.95
2022-08-19T21:16:02.503Z,2.78
2022-08-19T21:18:51.407Z,2.33
2022-08-19T21:21:37.331Z,2.50
2022-08-19T21:24:26.329Z,1.92
2022-08-19T21:27:17.225Z,1.77
2022-08-19T21:30:05.174Z,1.95
2022-08-19T21:32:52.647Z,1.60
2022-08-19T21:35:39.133Z,2.03
2022-08-19T21:38:25.288Z,1.75
2022-08-19T21:41:10.805Z,1.98
2022-08-19T21:43:57.063Z,2.30
2022-08-19T21:46:42.617Z,2.08
2022-08-19T21:49:28.912Z,2.10
2022-08-19T21:52:15.077Z,1.80
2022-08-19T21:55:00.911Z,1.90
2022-08-19T21:57:47.111Z,1.95
2022-08-19T22:00:34.697Z,1.63
2022-08-19T22:03:22.043Z,1.88
2022-08-19T22:06:09.328Z,1.88
2022-08-19T22:08:55.554Z,2.13
2022-08-19T22:11:41.398Z,1.70
2022-08-19T22:14:27.504Z,1.88
2022-08-19T22:17:14.686Z,1.90
2022-08-19T22:20:00.276Z,1.90
2022-08-19T22:22:49.612Z,1.63
2022-08-19T22:25:40.419Z,1.83
2022-08-19T22:28:27.624Z,2.33
2022-08-19T22:31:14.092Z,1.92
2022-08-19T22:34:01.221Z,2.25
2022-08-19T22:36:46.645Z,2.08
2022-08-19T22:39:32.372Z,2.10
2022-08-19T22:42:20.159Z,2.03
2022-08-19T22:45:08.393Z,1.88
2022-08-19T22:47:54.940Z,2.65
2022-08-19T22:50:43.473Z,2.08
2022-08-19T22:53:29.724Z,1.80
2022-08-19T22:56:18.526Z,1.88
2022-08-19T22:59:04.370Z,2.20
2022-08-19T23:01:50.038Z,2.17
2022-08-19T23:04:36.707Z,1.80
2022-08-19T23:07:23.549Z,2.05
2022-08-19T23:10:11.418Z,1.92
2022-08-19T23:12:59.147Z,2.25
2022-08-19T23:15:47.178Z,2.15
2022-08-19T23:18:33.690Z,1.85
2022-08-19T23:21:20.105Z,2.08
2022-08-19T23:24:06.062Z,2.20
2022-08-19T23:27:10.802Z,2.10
2022-08-19T23:30:15.352Z,2.10
2022-08-19T23:33:12.265Z,1.70
2022-08-19T23:36:02.029Z,1.63
2022-08-19T23:38:49.391Z,2.30
2022-08-19T23:41:35.381Z,1.98
2022-08-19T23:44:21.527Z,1.92
2022-08-19T23:47:08.185Z,2.35
2022-08-19T23:49:53.819Z,2.53
2022-08-19T23:52:49.209Z,2.13
2022-08-19T23:55:38.903Z,2.08
2022-08-19T23:58:30.110Z,1.73
